Time,TemperatureF,DewpointF,PressureIn,WindDirection,WindDirectionDegrees,WindSpeedMPH,WindSpeedGustMPH,Humidity,HourlyPrecipIn,Conditions,Clouds,dailyrainin,SoftwareType,DateUTC
2013-07-28 00:02:00,72.0,68.0,-100.00,North,-999,-999.0,-999.0,89,0.00,,,0.00,,2013-07-28 05:02:00,
2013-07-28 00:22:00,71.0,69.0,-100.00,North,-999,-999.0,-999.0,92,0.00,,,0.00,,2013-07-28 05:22:00,
2013-07-28 00:32:00,71.0,68.0,-100.00,North,-999,-999.0,-999.0,92,0.00,,,0.00,,2013-07-28 05:32:00,
2013-07-28 00:52:00,71.0,68.0,-100.00,North,-999,-999.0,-999.0,90,0.00,,,0.00,,2013-07-28 05:52:00,
2013-07-28 01:02:00,71.0,68.0,-100.00,North,-999,-999.0,-999.0,91,0.00,,,0.00,,2013-07-28 06:02:00,
2013-07-28 01:22:00,71.0,68.0,-100.00,North,-999,-999.0,-999.0,92,0.00,,,0.00,,2013-07-28 06:22:00,
2013-07-28 01:32:00,71.0,68.0,-100.00,North,-999,-999.0,-999.0,93,0.00,,,0.00,,2013-07-28 06:32:00,
2013-07-28 01:52:00,70.0,68.0,-100.00,North,-999,-999.0,-999.0,93,0.00,,,0.00,,2013-07-28 06:52:00,
2013-07-28 02:02:00,70.0,68.0,-100.00,North,-999,-999.0,-999.0,93,0.00,,,0.00,,2013-07-28 07:02:00,
2013-07-28 02:22:00,70.0,69.0,-100.00,North,-999,-999.0,-999.0,94,0.00,,,0.00,,2013-07-28 07:22:00,
2013-07-28 02:32:00,70.0,68.0,-100.00,North,-999,-999.0,-999.0,94,0.00,,,0.00,,2013-07-28 07:32:00,
2013-07-28 02:53:00,70.0,69.0,-100.00,North,-999,-999.0,-999.0,97,0.00,,,0.00,,2013-07-28 07:53:00,
2013-07-28 03:02:00,70.0,69.0,-100.00,North,-999,-999.0,-999.0,98,0.00,,,0.00,,2013-07-28 08:02:00,
2013-07-28 03:12:00,70.0,69.0,-100.00,North,-999,-999.0,-999.0,98,0.00,,,0.00,,2013-07-28 08:12:00,
2013-07-28 03:22:00,70.0,69.0,-100.00,North,-999,-999.0,-999.0,98,0.00,,,0.00,,2013-07-28 08:22:00,
2013-07-28 03:33:00,70.0,69.0,-100.00,North,-999,-999.0,-999.0,99,0.00,,,0.00,,2013-07-28 08:33:00,
2013-07-28 03:53:00,70.0,70.0,-100.00,North,-999,-999.0,-999.0,100,0.00,,,0.00,,2013-07-28 08:53:00,
2013-07-28 04:02:00,70.0,70.0,-100.00,North,-999,-999.0,-999.0,100,0.00,,,0.00,,2013-07-28 09:02:00,
2013-07-28 04:22:00,70.0,70.0,-100.00,North,-999,-999.0,-999.0,100,-99.99,,,0.00,,2013-07-28 09:22:00,
2013-07-28 04:32:00,69.0,69.0,-100.00,North,-999,-999.0,-999.0,100,0.00,,,0.00,,2013-07-28 09:32:00,
2013-07-28 04:53:00,69.0,69.0,-100.00,North,-999,-999.0,-999.0,100,0.00,,,0.00,,2013-07-28 09:53:00,
2013-07-28 05:02:00,69.0,69.0,-100.00,North,-999,-999.0,-999.0,100,0.00,,,0.00,,2013-07-28 10:02:00,
2013-07-28 05:22:00,69.0,69.0,-100.00,North,-999,-999.0,-999.0,100,0.00,,,0.00,,2013-07-28 10:22:00,
2013-07-28 05:32:00,70.0,70.0,-100.00,North,-999,-999.0,-999.0,100,0.00,,,0.00,,2013-07-28 10:32:00,
2013-07-28 05:52:00,70.0,70.0,-100.00,North,-999,-999.0,-999.0,100,0.00,,,0.00,,2013-07-28 10:52:00,
2013-07-28 06:22:00,69.0,69.0,-100.00,North,-999,-999.0,-999.0,100,0.00,,,0.00,,2013-07-28 11:22:00,
2013-07-28 06:33:00,69.0,69.0,-100.00,North,-999,-999.0,-999.0,100,0.00,,,0.00,,2013-07-28 11:33:00,
2013-07-28 06:53:00,69.0,69.0,-100.00,North,-999,-999.0,-999.0,100,0.00,,,0.00,,2013-07-28 11:53:00,
2013-07-28 07:02:00,69.0,69.0,-100.00,North,-999,-999.0,-999.0,100,0.00,,,0.00,,2013-07-28 12:02:00,
2013-07-28 07:22:00,69.0,69.0,-100.00,North,-999,-999.0,-999.0,100,0.00,,,-99.99,,2013-07-28 12:22:00,
2013-07-28 07:33:00,69.0,69.0,-100.00,North,-999,-999.0,-999.0,100,0.00,,,0.00,,2013-07-28 12:33:00,
2013-07-28 07:53:00,69.0,69.0,-100.00,North,-999,-999.0,-999.0,100,0.00,,,0.00,,2013-07-28 12:53:00,
2013-07-28 08:02:00,70.0,70.0,-100.00,North,-999,-999.0,-999.0,100,0.00,,,0.00,,2013-07-28 13:02:00,
2013-07-28 08:22:00,70.0,70.0,-100.00,North,-999,-999.0,-999.0,100,0.00,,,0.00,,2013-07-28 13:22:00,
2013-07-28 08:32:00,71.0,71.0,-100.00,North,-999,-999.0,-999.0,100,0.00,,,0.00,,2013-07-28 13:32:00,
2013-07-28 08:52:00,72.0,72.0,-100.00,North,-999,-999.0,-999.0,100,0.00,,,0.00,,2013-07-28 13:52:00,
2013-07-28 09:02:00,72.0,72.0,-100.00,North,-999,-999.0,-999.0,100,0.00,,,-99.99,,2013-07-28 14:02:00,
2013-07-28 09:22:00,74.0,73.0,-100.00,North,-999,-999.0,-999.0,98,0.00,,,-99.99,,2013-07-28 14:22:00,
2013-07-28 09:33:00,74.0,73.0,-100.00,North,-999,-999.0,-999.0,98,0.00,,,0.00,,2013-07-28 14:33:00,
2013-07-28 09:43:00,74.0,73.0,-100.00,North,-999,-999.0,-999.0,98,0.00,,,0.00,,2013-07-28 14:43:00,
2013-07-28 09:53:00,74.0,73.0,-100.00,North,-999,-999.0,-999.0,98,0.00,,,0.00,,2013-07-28 14:53:00,
2013-07-28 10:02:00,74.0,74.0,-100.00,North,-999,-999.0,-999.0,100,0.00,,,0.00,,2013-07-28 15:02:00,
2013-07-28 10:22:00,76.0,75.0,-100.00,North,-999,-999.0,-999.0,97,0.00,,,0.00,,2013-07-28 15:22:00,
2013-07-28 10:32:00,76.0,75.0,-100.00,North,-999,-999.0,-999.0,97,0.00,,,0.00,,2013-07-28 15:32:00,
2013-07-28 10:53:00,76.0,75.0,-100.00,North,-999,-999.0,-999.0,96,-99.99,,,0.00,,2013-07-28 15:53:00,
2013-07-28 11:02:00,78.0,74.0,-100.00,North,-999,-999.0,-999.0,89,0.00,,,0.00,,2013-07-28 16:02:00,
2013-07-28 11:12:00,78.0,74.0,-100.00,North,-999,-999.0,-999.0,89,0.00,,,0.00,,2013-07-28 16:12:00,
2013-07-28 11:22:00,78.0,74.0,-100.00,North,-999,-999.0,-999.0,89,0.00,,,0.00,,2013-07-28 16:22:00,
2013-07-28 11:33:00,80.0,74.0,-100.00,North,-999,-999.0,-999.0,81,0.00,,,0.00,,2013-07-28 16:33:00,
2013-07-28 11:43:00,80.0,74.0,-100.00,North,-999,-999.0,-999.0,81,0.00,,,0.00,,2013-07-28 16:43:00,
2013-07-28 11:52:00,80.0,74.0,-100.00,North,-999,-999.0,-999.0,81,0.00,,,0.00,,2013-07-28 16:52:00,
2013-07-28 12:02:00,80.0,75.0,-100.00,North,-999,-999.0,-999.0,84,0.00,,,0.00,,2013-07-28 17:02:00,
2013-07-28 12:22:00,80.0,74.0,-100.00,North,-999,-999.0,-999.0,81,-99.99,,,0.00,,2013-07-28 17:22:00,
2013-07-28 12:32:00,81.0,74.0,-100.00,North,-999,-999.0,-999.0,80,0.00,,,0.00,,2013-07-28 17:32:00,
2013-07-28 12:53:00,80.0,74.0,-100.00,North,-999,-999.0,-999.0,81,0.00,,,0.00,,2013-07-28 17:53:00,
2013-07-28 13:03:00,82.0,74.0,-100.00,North,-999,-999.0,-999.0,76,0.00,,,0.00,,2013-07-28 18:03:00,
2013-07-28 13:22:00,82.0,73.0,-100.00,North,-999,-999.0,-999.0,74,0.00,,,0.00,,2013-07-28 18:22:00,
2013-07-28 13:33:00,82.0,73.0,-100.00,North,-999,-999.0,-999.0,74,0.00,,,0.00,,2013-07-28 18:33:00,
2013-07-28 13:52:00,84.0,72.0,-100.00,North,-999,-999.0,-999.0,66,0.00,,,0.00,,2013-07-28 18:52:00,
2013-07-28 14:02:00,85.0,73.0,-100.00,North,-999,-999.0,-999.0,66,0.00,,,0.00,,2013-07-28 19:02:00,
2013-07-28 14:22:00,86.0,71.0,-100.00,North,-999,-999.0,-999.0,61,0.00,,,0.00,,2013-07-28 19:22:00,
2013-07-28 14:33:00,86.0,72.0,-100.00,North,-999,-999.0,-999.0,62,0.00,,,0.00,,2013-07-28 19:33:00,
2013-07-28 14:52:00,87.0,69.0,-100.00,North,-999,-999.0,-999.0,56,0.00,,,0.00,,2013-07-28 19:52:00,
2013-07-28 15:02:00,88.0,71.0,-100.00,North,-999,-999.0,-999.0,57,0.00,,,0.00,,2013-07-28 20:02:00,
2013-07-28 15:12:00,88.0,71.0,-100.00,North,-999,-999.0,-999.0,57,0.00,,,0.00,,2013-07-28 20:12:00,
2013-07-28 15:23:00,88.0,70.0,-100.00,North,-999,-999.0,-999.0,56,0.00,,,0.00,,2013-07-28 20:23:00,
2013-07-28 15:33:00,88.0,71.0,-100.00,North,-999,-999.0,-999.0,57,0.00,,,0.00,,2013-07-28 20:33:00,
2013-07-28 15:43:00,88.0,71.0,-100.00,North,-999,-999.0,-999.0,57,0.00,,,0.00,,2013-07-28 20:43:00,
2013-07-28 15:52:00,88.0,71.0,-100.00,North,-999,-999.0,-999.0,57,0.00,,,0.00,,2013-07-28 20:52:00,
2013-07-28 16:02:00,88.0,71.0,-100.00,North,-999,-999.0,-999.0,57,0.00,,,0.00,,2013-07-28 21:02:00,
2013-07-28 16:52:00,90.0,69.0,-100.00,North,-999,-999.0,-999.0,51,-99.99,,,0.00,,2013-07-28 21:52:00,
2013-07-28 17:02:00,90.0,69.0,-100.00,North,-999,-999.0,-999.0,51,-99.99,,,0.00,,2013-07-28 22:02:00,
2013-07-28 17:22:00,89.0,68.0,-100.00,North,-999,-999.0,-999.0,49,-99.99,,,-99.99,,2013-07-28 22:22:00,
2013-07-28 17:32:00,90.0,67.0,-100.00,North,-999,-999.0,-999.0,47,0.00,,,0.00,,2013-07-28 22:32:00,
2013-07-28 17:52:00,90.0,67.0,-100.00,North,-999,-999.0,-999.0,47,0.00,,,0.00,,2013-07-28 22:52:00,
2013-07-28 18:03:00,90.0,64.0,-100.00,North,-999,-999.0,-999.0,41,0.00,,,0.00,,2013-07-28 23:03:00,
2013-07-28 18:22:00,90.0,67.0,-100.00,North,-999,-999.0,-999.0,46,0.00,,,0.00,,2013-07-28 23:22:00,
2013-07-28 18:32:00,90.0,66.0,-100.00,North,-999,-999.0,-999.0,46,0.00,,,0.00,,2013-07-28 23:32:00,
2013-07-28 18:53:00,90.0,64.0,-100.00,North,-999,-999.0,-999.0,42,0.00,,,0.00,,2013-07-28 23:53:00,
2013-07-28 19:02:00,90.0,64.0,-100.00,North,-999,-999.0,-999.0,42,0.00,,,0.00,,2013-07-29 00:02:00,
2013-07-28 19:22:00,89.0,66.0,-100.00,North,-999,-999.0,-999.0,47,0.00,,,0.00,,2013-07-29 00:22:00,
2013-07-28 19:32:00,89.0,67.0,-100.00,North,-999,-999.0,-999.0,48,0.00,,,0.00,,2013-07-29 00:32:00,
2013-07-28 19:52:00,88.0,68.0,-100.00,North,-999,-999.0,-999.0,51,0.00,,,-99.99,,2013-07-29 00:52:00,
2013-07-28 20:02:00,87.0,68.0,-100.00,North,-999,-999.0,-999.0,52,-99.99,,,0.00,,2013-07-29 01:02:00,
2013-07-28 20:34:00,86.0,66.0,-100.00,North,-999,-999.0,-999.0,51,0.00,,,0.00,,2013-07-29 01:34:00,
2013-07-28 21:04:00,85.0,67.0,-100.00,North,-999,-999.0,-999.0,54,0.00,,,0.00,,2013-07-29 02:04:00,
2013-07-28 21:24:00,85.0,67.0,-100.00,North,-999,-999.0,-999.0,55,0.00,,,-99.99,,2013-07-29 02:24:00,
2013-07-28 21:36:00,84.0,67.0,-100.00,North,-999,-999.0,-999.0,56,0.00,,,0.00,,2013-07-29 02:36:00,
2013-07-28 21:55:00,84.0,67.0,-100.00,North,-999,-999.0,-999.0,57,0.00,,,0.00,,2013-07-29 02:55:00,
2013-07-28 22:03:00,84.0,67.0,-100.00,North,-999,-999.0,-999.0,57,0.00,,,0.00,,2013-07-29 03:03:00,
2013-07-28 22:36:00,83.0,68.0,-100.00,North,-999,-999.0,-999.0,60,0.00,,,0.00,,2013-07-29 03:36:00,
2013-07-28 22:55:00,83.0,68.0,-100.00,North,-999,-999.0,-999.0,61,0.00,,,0.00,,2013-07-29 03:55:00,
2013-07-28 23:02:00,82.0,69.0,-100.00,North,-999,-999.0,-999.0,63,0.00,,,0.00,,2013-07-29 04:02:00,
2013-07-28 23:12:00,82.0,69.0,-100.00,North,-999,-999.0,-999.0,63,0.00,,,0.00,,2013-07-29 04:12:00,
2013-07-28 23:22:00,82.0,69.0,-100.00,North,-999,-999.0,-999.0,63,0.00,,,0.00,,2013-07-29 04:22:00,
2013-07-28 23:32:00,82.0,68.0,-100.00,North,-999,-999.0,-999.0,64,0.00,,,0.00,,2013-07-29 04:32:00,
2013-07-28 23:53:00,81.0,69.0,-100.00,North,-999,-999.0,-999.0,65,0.00,,,0.00,,2013-07-29 04:53:00,